Latest Weather Observations for Tennant Creek

IDD60801

Issued at 10:05 pm CST Wednesday 20 August 2014 (issued every 30 minutes, with the page automatically refreshed every 10 minutes)

About weather observations | Map of weather stations | Latest weather observations for NT | Other Formats
Station Details ID: 015135 Name: TENNANT CREEK AIRPORT Lat: -19.64 Lon: 134.18 Height: 375.7 m
Data from the previous 72 hours. | See also: Recent months at Tennant Creek
Date/Time
CST
Temp
°C
App
Temp
°C
Dew
Point
Rel
Hum
%
Delta-T
°C
Wind Press
QNH
hPa
Press
MSL
hPa
Rain
since 9 am
mm
Dir
 
Spd
km/h
Gust
km/h
Spd
kts
Gust
kts
20/10:00pm 16.4 11.9 -6.5 20 8.7 ESE 9 13 5 7 1019.8 - 0.0
20/09:30pm 14.4 11.0 -0.5 36 6.3 ESE 7 9 4 5 1019.6 - 0.0
20/09:00pm 16.3 12.1 -3.9 25 8.1 ESE 9 13 5 7 1019.5 1018.1 0.0
20/08:30pm 17.8 13.4 -6.1 19 9.3 SE 9 13 5 7 1019.2 - 0.0
20/08:00pm 16.5 13.1 -1.8 28 7.7 ESE 6 7 3 4 1018.7 - 0.0
20/07:30pm 17.1 14.9 -1.8 27 8.0 CALM 0 0 0 0 1018.2 - 0.0
20/07:00pm 18.7 16.6 -1.0 26 8.6 CALM 0 0 0 0 1017.6 - 0.0
20/06:30pm 20.9 17.1 -5.8 16 10.8 SE 6 9 3 5 1017.4 - 0.0
20/06:00pm 21.8 16.9 -7.1 14 11.5 SE 11 17 6 9 1017.2 1015.8 0.0
20/05:30pm 22.6 16.8 -8.9 11 12.2 SSE 15 24 8 13 1017.0 - 0.0
20/05:00pm 23.2 18.5 -8.8 11 12.5 SE 9 22 5 12 1017.1 - 0.0
20/04:30pm 22.9 17.5 -8.5 11 12.3 SE 13 20 7 11 1017.1 - 0.0
20/04:00pm 23.0 16.4 -9.5 10 12.5 S 19 24 10 13 1017.2 - 0.0
20/03:30pm 23.1 18.3 -6.1 14 12.0 SE 11 20 6 11 1017.2 - 0.0
20/03:00pm 22.8 16.7 -8.2 12 12.2 S 17 26 9 14 1017.5 1016.1 0.0
20/02:30pm 22.5 15.8 -8.0 12 12.0 SSE 20 28 11 15 1018.0 - 0.0
20/02:00pm 22.0 16.2 -8.3 12 11.8 SSE 15 28 8 15 1018.3 - 0.0
20/01:30pm 21.6 17.2 -6.1 15 11.2 SE 9 26 5 14 1018.8 - 0.0
20/01:00pm 21.1 17.2 -4.3 18 10.6 SW 7 13 4 7 1019.2 - 0.0
20/12:30pm 21.4 16.9 -6.7 14 11.2 ENE 9 17 5 9 1019.8 - 0.0
20/12:00pm 20.9 13.9 -7.0 14 11.0 ESE 22 28 12 15 1020.2 1018.8 0.0
20/11:30am 20.2 14.4 -4.7 18 10.2 ENE 17 30 9 16 1020.9 - 0.0
20/11:00am 20.1 13.8 -4.0 19 10.0 E 20 32 11 17 1021.2 - 0.0
20/10:30am 19.5 12.7 -5.0 18 9.9 E 22 28 12 15 1021.6 - 0.0
20/10:00am 18.5 11.4 -4.5 20 9.3 E 24 28 13 15 1021.7 - 0.0
20/09:30am 17.2 10.4 -5.1 21 8.8 E 22 30 12 16 1021.7 - 0.0
20/09:00am 16.0 9.2 -5.5 22 8.3 E 22 30 12 16 1021.5 1020.1 0.0
20/08:30am 14.2 7.0 -5.2 25 7.4 E 24 33 13 18 1021.4 - 0.0
20/08:00am 13.2 6.5 -4.6 28 6.8 E 22 32 12 17 1021.0 - 0.0
20/07:30am 12.6 7.2 -4.1 31 6.4 E 15 22 8 12 1020.4 - 0.0
20/07:00am 11.2 6.3 -3.0 37 5.5 E 13 15 7 8 1020.1 - 0.0
20/06:30am 11.0 6.2 -2.6 38 5.3 E 13 15 7 8 1019.8 - 0.0
20/06:00am 10.9 6.6 -2.0 40 5.1 E 11 13 6 7 1019.6 1018.2 0.0
20/05:30am 11.4 7.0 -2.3 38 5.4 ESE 11 17 6 9 1019.6 - 0.0
20/05:00am 11.7 6.9 -2.5 37 5.6 E 13 20 7 11 1019.4 - 0.0
20/04:30am 11.6 6.9 -1.9 39 5.4 E 13 15 7 8 1019.4 - 0.0
20/04:00am 11.6 6.9 -1.9 39 5.4 E 13 17 7 9 1019.5 - 0.0
20/03:30am 11.5 6.9 -1.4 40 5.2 E 13 15 7 8 1019.5 - 0.0
20/03:00am 11.1 7.3 -1.0 43 4.9 E 9 11 5 6 1019.5 1018.1 0.0
20/02:30am 11.9 8.4 -1.1 40 5.3 E 7 9 4 5 1019.5 - 0.0
20/02:00am 12.8 8.5 -1.7 36 5.9 E 11 13 6 7 1019.5 - 0.0
20/01:30am 13.2 8.9 -1.4 36 6.0 E 11 13 6 7 1019.6 - 0.0
20/01:00am 13.9 9.6 -1.3 35 6.3 E 11 15 6 8 1019.6 - 0.0
20/12:30am 14.0 9.4 -1.1 35 6.3 E 13 15 7 8 1019.7 - 0.0
20/12:00am 14.8 10.2 -1.2 33 6.7 ENE 13 17 7 9 1019.7 1018.3 0.0
 
Date/Time
CST
Temp
°C
App
Temp
°C
Dew
Point
Rel
Hum
%
Delta-T
°C
Wind Press
QNH
hPa
Press
MSL
hPa
Rain
since 9 am
mm
Dir
 
Spd
km/h
Gust
km/h
Spd
kts
Gust
kts
19/11:30pm 13.4 9.8 0.3 40 5.6 ENE 9 13 5 7 1019.9 - 0.0
19/11:00pm 13.2 10.1 1.6 45 5.1 E 7 9 4 5 1019.9 - 0.0
19/10:30pm 14.4 11.2 0.6 39 6.0 ESE 7 9 4 5 1019.8 - 0.0
19/10:00pm 15.0 11.7 -0.1 35 6.5 ESE 7 9 4 5 1019.8 - 0.0
19/09:30pm 15.0 11.8 0.9 38 6.2 E 7 9 4 5 1019.7 - 0.0
19/09:00pm 15.2 12.0 0.9 38 6.3 E 7 9 4 5 1019.6 1018.2 0.0
19/08:30pm 15.8 13.2 1.2 37 6.5 E 4 6 2 3 1019.5 - 0.0
19/08:00pm 16.9 13.7 0.7 33 7.2 E 7 9 4 5 1019.1 - 0.0
19/07:30pm 17.7 14.6 0.4 31 7.7 E 6 7 3 4 1018.6 - 0.0
19/07:00pm 18.8 15.4 -0.5 27 8.5 ESE 7 11 4 6 1018.3 - 0.0
19/06:30pm 19.7 15.5 -1.0 25 9.1 E 11 15 6 8 1017.9 - 0.0
19/06:00pm 20.7 16.1 -0.9 23 9.6 E 13 20 7 11 1017.6 1016.2 0.0
19/05:30pm 21.3 15.5 -1.2 22 10.0 ENE 19 24 10 13 1017.5 - 0.0
19/05:00pm 21.5 16.9 -1.2 22 10.1 E 13 22 7 12 1017.5 - 0.0
19/04:30pm 21.6 15.8 -1.8 21 10.3 ESE 19 26 10 14 1017.5 - 0.0
19/04:00pm 21.7 17.2 -0.4 23 10.0 ESE 13 22 7 12 1017.4 - 0.0
19/03:30pm 21.7 16.0 -1.1 21 10.2 ESE 19 30 10 16 1017.6 - 0.0
19/03:00pm 22.0 16.8 0.2 23 10.0 E 17 30 9 16 1018.0 1016.5 0.0
19/02:30pm 21.3 16.0 -0.4 23 9.8 E 17 30 9 16 1018.6 - 0.0
19/02:00pm 21.8 15.8 -1.4 21 10.3 SE 20 28 11 15 1019.1 - 0.0
19/01:30pm 20.3 15.8 -0.2 25 9.2 SSE 13 22 7 12 1019.6 - 0.0
19/01:00pm 20.9 16.1 -0.1 24 9.5 E 15 28 8 15 1020.0 - 0.0
19/12:30pm 20.9 14.9 -1.3 22 9.8 SE 20 33 11 18 1020.5 - 0.0
19/12:00pm 19.4 13.8 -0.1 27 8.7 ESE 19 28 10 15 1021.2 1019.8 0.0
19/11:30am 19.7 13.1 -0.3 26 8.9 ESE 24 33 13 18 1021.9 - 0.0
19/11:00am 19.0 12.9 0.2 28 8.4 ESE 22 28 12 15 1022.5 - 0.0
19/10:30am 18.6 12.2 1.2 31 7.9 ESE 24 33 13 18 1022.9 - 0.0
19/10:00am 17.9 11.2 1.4 33 7.5 ESE 26 35 14 19 1023.1 - 0.0
19/09:30am 16.9 9.9 2.0 36 6.8 E 28 41 15 22 1023.3 - 0.0
19/09:00am 16.2 8.4 1.8 38 6.5 ESE 32 43 17 23 1023.1 1021.7 0.0
19/08:30am 14.6 9.2 1.5 41 5.8 ESE 19 28 10 15 1022.9 - 0.0
19/08:00am 13.1 7.7 1.1 44 5.2 ESE 19 26 10 14 1022.8 - 0.0
19/07:30am 11.5 7.1 0.6 47 4.6 ESE 13 22 7 12 1022.5 - 0.0
19/07:00am 10.4 6.0 0.6 50 4.1 ESE 13 17 7 9 1022.1 - 0.0
19/06:30am 10.7 5.9 0.4 49 4.3 ESE 15 20 8 11 1021.8 - 0.0
19/06:00am 11.0 6.2 0.5 48 4.4 ESE 15 20 8 11 1021.5 1020.1 0.0
19/05:30am 11.0 6.6 0.2 47 4.5 ESE 13 22 7 12 1021.0 - 0.0
19/05:00am 11.3 6.8 0.0 45 4.7 E 13 17 7 9 1020.7 - 0.0
19/04:30am 11.2 6.7 -0.5 44 4.8 ESE 13 20 7 11 1020.7 - 0.0
19/04:00am 11.3 7.1 -0.7 43 4.9 ESE 11 17 6 9 1020.4 - 0.0
19/03:30am 12.0 7.7 -2.0 37 5.6 ESE 11 15 6 8 1020.5 - 0.0
19/03:00am 11.7 8.1 -1.8 39 5.4 ESE 7 11 4 6 1020.5 1019.1 0.0
19/02:30am 11.6 8.2 -0.9 42 5.1 E 7 11 4 6 1020.5 - 0.0
19/02:00am 12.1 8.3 -0.8 41 5.3 E 9 11 5 6 1020.7 - 0.0
19/01:30am 12.6 9.1 -1.0 39 5.6 E 7 11 4 6 1020.8 - 0.0
19/01:00am 12.3 8.9 -0.8 40 5.4 E 7 11 4 6 1020.8 - 0.0
19/12:30am 12.9 9.5 -0.9 38 5.7 E 7 9 4 5 1020.9 - 0.0
19/12:00am 13.3 9.8 -1.6 35 6.1 E 7 9 4 5 1021.0 1019.5 0.0
 
Date/Time
CST
Temp
°C
App
Temp
°C
Dew
Point
Rel
Hum
%
Delta-T
°C
Wind Press
QNH
hPa
Press
MSL
hPa
Rain
since 9 am
mm
Dir
 
Spd
km/h
Gust
km/h
Spd
kts
Gust
kts
18/11:30pm 13.0 9.5 -1.1 37 5.8 E 7 9 4 5 1020.9 - 0.0
18/11:00pm 13.7 10.2 -1.3 35 6.2 E 7 9 4 5 1021.0 - 0.0
18/10:30pm 13.9 10.7 -0.6 37 6.1 E 6 7 3 4 1021.1 - 0.0
18/10:00pm 14.1 10.6 -1.0 35 6.3 E 7 9 4 5 1021.0 - 0.0
18/09:30pm 15.5 11.8 -3.0 28 7.5 ESE 7 11 4 6 1021.1 - 0.0
18/09:00pm 15.3 11.4 -1.8 31 7.1 E 9 11 5 6 1020.9 1019.4 0.0
18/08:30pm 15.8 12.3 -1.6 30 7.3 E 7 9 4 5 1020.8 - 0.0
18/08:00pm 16.4 12.9 -1.3 30 7.5 E 7 9 4 5 1020.3 - 0.0
18/07:30pm 16.8 13.2 -2.1 27 7.9 E 7 9 4 5 1019.9 - 0.0
18/07:00pm 18.0 13.9 -2.9 24 8.7 E 9 11 5 6 1019.6 - 0.0
18/06:30pm 19.4 14.9 -3.3 21 9.5 E 11 15 6 8 1019.3 - 0.0
18/06:00pm 20.7 15.2 -5.3 17 10.6 E 15 20 8 11 1019.0 1017.6 0.0
18/05:30pm 21.3 15.8 -5.3 16 10.9 SE 15 22 8 12 1018.7 - 0.0
18/05:00pm 21.5 16.0 -5.8 15 11.1 ESE 15 26 8 14 1018.4 - 0.0
18/04:30pm 21.6 15.2 -7.2 14 11.4 ESE 19 28 10 15 1018.3 - 0.0
18/04:00pm 21.9 15.8 -7.4 13 11.6 SE 17 26 9 14 1018.3 - 0.0
18/03:30pm 21.4 15.0 -7.2 14 11.3 E 19 26 10 14 1018.5 - 0.0
18/03:00pm 21.4 14.9 -8.4 13 11.5 ESE 19 28 10 15 1018.8 1017.3 0.0
18/02:30pm 20.9 15.3 -6.4 15 10.9 E 15 30 8 16 1019.1 - 0.0
18/02:00pm 21.4 14.9 -8.4 13 11.5 ESE 19 28 10 15 1019.6 - 0.0
18/01:30pm 20.5 14.4 -8.2 14 11.0 SE 17 30 9 16 1020.1 - 0.0
18/01:00pm 20.4 13.8 -9.1 13 11.1 SE 19 30 10 16 1020.5 - 0.0
18/12:30pm 19.1 11.2 -9.4 13 10.5 SE 26 35 14 19 1021.2 - 0.0
18/12:00pm 19.9 13.1 -8.8 13 10.8 SE 20 30 11 16 1021.8 1020.4 0.0
18/11:30am 18.6 11.1 -8.5 15 10.1 SE 24 39 13 21 1022.3 - 0.0
18/11:00am 18.0 11.5 -5.7 19 9.3 ESE 20 33 11 18 1022.8 - 0.0
18/10:30am 17.9 10.4 -5.0 20 9.1 ESE 26 35 14 19 1023.0 - 0.0
18/10:00am 16.8 9.2 -5.1 22 8.6 ESE 26 39 14 21 1023.1 - 0.0
18/09:30am 16.1 8.2 -4.4 24 8.1 ESE 28 41 15 22 1023.1 - 0.0
18/09:00am 15.4 8.0 -3.7 26 7.6 ESE 26 35 14 19 1023.0 1021.6 0.0
18/08:30am 14.4 7.4 -3.6 28 7.1 ESE 24 35 13 19 1022.9 - 0.0
18/08:00am 13.2 6.6 -3.4 31 6.5 ESE 22 33 12 18 1022.6 - 0.0
18/07:30am 12.2 6.0 -3.2 34 6.0 ESE 20 32 11 17 1022.3 - 0.0
18/07:00am 11.1 5.1 -3.2 36 5.5 ESE 19 28 10 15 1022.2 - 0.0
18/06:30am 10.7 5.1 -2.7 39 5.2 ESE 17 24 9 13 1021.9 - 0.0
18/06:00am 11.0 5.8 -2.6 38 5.3 E 15 24 8 13 1021.6 1020.2 0.0
18/05:30am 10.9 5.8 -2.0 40 5.1 E 15 22 8 12 1021.3 - 0.0
18/05:00am 11.0 6.0 -1.5 42 5.0 E 15 24 8 13 1021.1 - 0.0
18/04:30am 11.5 6.9 -1.4 40 5.2 E 13 20 7 11 1021.0 - 0.0
18/04:00am 11.6 5.8 -1.2 41 5.2 E 19 26 10 14 1020.9 - 0.0
18/03:30am 12.3 6.5 -1.5 38 5.6 ESE 19 26 10 14 1020.9 - 0.0
18/03:00am 12.2 7.2 -1.0 40 5.4 E 15 22 8 12 1020.5 1019.1 0.0
18/02:30am 12.1 7.9 -1.1 40 5.4 E 11 17 6 9 1020.7 - 0.0
18/02:00am 11.7 7.9 -1.1 41 5.2 E 9 11 5 6 1020.9 - 0.0
18/01:30am 12.6 8.7 -1.4 38 5.7 E 9 13 5 7 1020.9 - 0.0
18/01:00am 13.0 8.7 -1.8 36 6.0 ESE 11 15 6 8 1021.0 - 0.0
18/12:30am 13.8 9.4 -2.3 32 6.5 ESE 11 17 6 9 1021.0 - 0.0
18/12:00am 14.1 9.7 -2.5 31 6.7 ESE 11 17 6 9 1021.0 1019.5 0.0
 
Date/Time
CST
Temp
°C
App
Temp
°C
Dew
Point
Rel
Hum
%
Delta-T
°C
Wind Press
QNH
hPa
Press
MSL
hPa
Rain
since 9 am
mm
Dir
 
Spd
km/h
Gust
km/h
Spd
kts
Gust
kts
17/11:30pm 14.4 10.3 -3.1 29 7.0 ESE 9 13 5 7 1021.0 - 0.0
17/11:00pm 13.8 10.2 -1.9 33 6.4 E 7 11 4 6 1021.1 - 0.0
17/10:30pm 14.7 10.6 -2.9 29 7.1 SE 9 17 5 9 1020.9 - 0.0

Other Formats:

Comma delimited format used in spreadsheet applications
http://www.bom.gov.au/fwo/IDD60801/IDD60801.94238.axf

JavaScript Object Notation format (JSON) in row-major order
http://www.bom.gov.au/fwo/IDD60801/IDD60801.94238.json